createdAt,value
2023-04-23T00:09:34.701Z,21.60
2023-04-23T00:19:38.592Z,19.10
2023-04-23T00:29:41.665Z,19.60
2023-04-23T00:39:45.723Z,21.40
2023-04-23T00:49:50.999Z,17.30
2023-04-23T00:59:56.434Z,19.60
2023-04-23T01:10:00.222Z,22.30
2023-04-23T01:20:06.492Z,16.70
2023-04-23T01:30:11.077Z,23.10
2023-04-23T01:40:14.219Z,16.60
2023-04-23T01:50:17.498Z,22.50
2023-04-23T02:00:20.878Z,18.10
2023-04-23T02:10:23.929Z,16.10
2023-04-23T02:20:27.111Z,17.10
2023-04-23T02:30:30.485Z,17.90
2023-04-23T02:40:33.511Z,19.20
2023-04-23T02:50:39.259Z,21.60
2023-04-23T03:00:42.346Z,20.00
2023-04-23T03:10:45.899Z,15.00
2023-04-23T03:20:50.103Z,20.10
2023-04-23T03:30:53.936Z,14.50
2023-04-23T03:40:57.311Z,17.40
2023-04-23T03:51:01.478Z,17.40
2023-04-23T04:01:11.336Z,19.00
2023-04-23T04:11:14.474Z,26.00
2023-04-23T04:21:19.112Z,21.40
2023-04-23T04:31:22.233Z,17.50
2023-04-23T04:41:26.170Z,22.40
2023-04-23T04:51:29.301Z,22.00
2023-04-23T05:01:33.599Z,23.80
2023-04-23T05:11:36.703Z,21.20
2023-04-23T05:21:40.088Z,25.70
2023-04-23T05:31:43.163Z,18.70
2023-04-23T05:41:46.409Z,17.00
2023-04-23T05:51:50.275Z,16.00
2023-04-23T06:01:53.367Z,14.60
2023-04-23T06:11:56.552Z,12.30
2023-04-23T06:21:59.790Z,11.40
2023-04-23T06:32:03.564Z,10.60
2023-04-23T06:42:06.656Z,12.40
2023-04-23T06:52:25.479Z,19.20
2023-04-23T07:02:28.529Z,15.60
2023-04-23T07:12:31.751Z,16.50
2023-04-23T07:22:35.512Z,7.30
2023-04-23T07:32:38.827Z,7.60
2023-04-23T07:42:42.248Z,7.00
2023-04-23T07:52:45.442Z,6.40
2023-04-23T08:02:48.675Z,8.60
2023-04-23T08:12:51.984Z,8.50
2023-04-23T08:22:55.947Z,6.60
2023-04-23T08:32:59.383Z,8.20
2023-04-23T08:43:05.718Z,7.50
2023-04-23T08:53:09.553Z,15.00
2023-04-23T09:03:13.119Z,6.70
2023-04-23T09:13:16.436Z,6.50
2023-04-23T09:23:22.216Z,4.80
2023-04-23T09:33:25.569Z,4.80
2023-04-23T09:43:31.019Z,4.80
2023-04-23T09:53:42.779Z,4.70
2023-04-23T10:03:45.906Z,5.70
2023-04-23T10:13:49.776Z,8.20
2023-04-23T10:23:55.354Z,5.30
2023-04-23T10:33:59.653Z,8.50
2023-04-23T10:44:05.555Z,5.40
2023-04-23T10:54:11.407Z,7.90
2023-04-23T11:04:25.942Z,4.30
2023-04-23T11:14:37.483Z,5.00
2023-04-23T11:24:43.048Z,5.20
2023-04-23T11:34:50.592Z,5.60
2023-04-23T11:44:53.714Z,5.40
2023-04-23T11:55:03.094Z,8.10
2023-04-23T12:05:08.418Z,5.80
2023-04-23T12:15:12.045Z,7.00
2023-04-23T12:25:16.120Z,5.10
2023-04-23T12:35:25.246Z,6.80
2023-04-23T12:45:45.681Z,8.80
2023-04-23T12:55:50.379Z,9.70
2023-04-23T13:05:53.684Z,3.50
2023-04-23T13:15:57.224Z,4.40
2023-04-23T13:26:00.442Z,4.00
2023-04-23T13:36:03.747Z,6.90
2023-04-23T13:46:07.057Z,3.80
2023-04-23T13:56:12.845Z,5.50
2023-04-23T14:06:27.240Z,4.70
2023-04-23T14:16:42.558Z,5.40
2023-04-23T14:26:49.252Z,6.10
2023-04-23T14:36:53.876Z,3.90
2023-04-23T14:46:57.360Z,5.20
2023-04-23T14:57:00.664Z,4.60
2023-04-23T15:07:03.941Z,3.90
2023-04-23T15:17:07.047Z,5.70
2023-04-23T15:27:15.229Z,3.60
2023-04-23T15:37:21.121Z,4.40
2023-04-23T15:47:24.433Z,5.70
2023-04-23T15:57:27.673Z,4.40
2023-04-23T16:07:31.424Z,4.90
2023-04-23T16:17:34.559Z,5.70
2023-04-23T16:27:37.988Z,6.20
2023-04-23T16:37:41.346Z,3.80
2023-04-23T16:47:44.560Z,6.50
2023-04-23T16:57:47.842Z,7.10
2023-04-23T17:07:52.850Z,5.40
2023-04-23T17:17:56.065Z,6.10
2023-04-23T17:27:59.442Z,11.70
2023-04-23T17:38:02.691Z,9.40
2023-04-23T17:48:06.584Z,8.90
2023-04-23T18:09:20.160Z,11.60
2023-04-23T18:19:23.497Z,17.70
2023-04-23T18:29:48.307Z,36.20
2023-04-23T18:39:53.136Z,14.10
2023-04-23T18:50:00.461Z,17.70
2023-04-23T19:00:04.114Z,13.20
2023-04-23T19:10:17.070Z,12.20
2023-04-23T19:20:27.024Z,16.10
2023-04-23T19:30:32.911Z,17.90
2023-04-23T19:40:37.618Z,27.30
2023-04-23T19:50:41.201Z,16.30
2023-04-23T20:01:17.999Z,15.50
2023-04-23T20:11:21.313Z,17.60
2023-04-23T20:21:25.084Z,18.60
2023-04-23T20:31:29.614Z,19.70
2023-04-23T20:41:36.821Z,26.10
2023-04-23T20:51:43.496Z,20.40
2023-04-23T21:12:34.918Z,21.70
2023-04-23T21:22:51.176Z,21.60
2023-04-23T21:32:56.389Z,22.40
2023-04-23T21:43:01.102Z,22.20
2023-04-23T21:53:05.580Z,21.30
2023-04-23T22:03:09.661Z,22.00
2023-04-23T22:13:14.879Z,19.90
2023-04-23T22:23:17.956Z,19.40
2023-04-23T22:33:21.238Z,20.50
2023-04-23T22:43:24.274Z,21.50
2023-04-23T22:53:27.361Z,20.30
2023-04-23T23:03:30.547Z,20.60
2023-04-23T23:13:33.690Z,18.20
2023-04-23T23:23:36.739Z,15.60
2023-04-23T23:33:40.302Z,16.40
2023-04-23T23:43:43.288Z,14.70
2023-04-23T23:53:47.534Z,14.80
